Time;durP1;ratioP1;P1;durP2;ratioP2;P2;SDS_P1;SDS_P2;PMS_P1;PMS_P2;Temp;Humidity;BMP_temperature;BMP_pressure;BME280_temperature;BME280_humidity;BME280_pressure;Samples;Min_cycle;Max_cycle;Signal;HPM_P1;HPM_P2
2023/04/30 00:01:49;;;;;;;1.40;0.30;;;18.90;61.40;;;;;;5011423;28;20056;-70
2023/04/30 00:04:15;;;;;;;1.13;0.30;;;18.90;61.40;;;;;;5011433;28;20057;-72
2023/04/30 00:06:44;;;;;;;0.90;0.20;;;18.90;61.30;;;;;;5011384;28;20129;-72
2023/04/30 00:09:11;;;;;;;0.90;0.40;;;18.90;61.40;;;;;;5011137;28;20400;-71
2023/04/30 00:11:38;;;;;;;1.02;0.38;;;18.90;61.40;;;;;;5011413;28;20050;-71
2023/04/30 00:14:05;;;;;;;0.85;0.35;;;18.90;61.40;;;;;;5010999;28;20527;-72
2023/04/30 00:16:32;;;;;;;0.80;0.30;;;18.90;61.40;;;;;;5011579;28;20054;-73
2023/04/30 00:18:58;;;;;;;1.10;0.22;;;18.80;61.90;;;;;;4991493;28;20066;-72
2023/04/30 00:21:26;;;;;;;1.35;0.30;;;18.80;61.30;;;;;;4997775;28;20050;-72
2023/04/30 00:23:54;;;;;;;1.00;0.22;;;18.80;61.30;;;;;;5010608;28;20053;-71
2023/04/30 00:26:21;;;;;;;0.93;0.30;;;18.80;61.30;;;;;;5010604;28;20058;-71
2023/04/30 00:28:48;;;;;;;0.88;0.28;;;18.80;61.30;;;;;;5011013;28;20082;-71
2023/04/30 00:31:15;;;;;;;1.05;0.40;;;18.80;61.30;;;;;;5011114;28;20119;-72
2023/04/30 00:33:42;;;;;;;1.25;0.32;;;18.80;61.90;;;;;;5011249;28;20735;-70
2023/04/30 00:36:09;;;;;;;2.05;0.30;;;18.80;61.30;;;;;;5010848;28;20045;-71
2023/04/30 00:38:36;;;;;;;0.98;0.30;;;18.80;61.20;;;;;;5001454;28;20054;-72
2023/04/30 00:41:04;;;;;;;0.82;0.22;;;18.80;61.20;;;;;;4990071;28;20058;-71
2023/04/30 00:43:33;;;;;;;1.40;0.30;;;18.80;61.30;;;;;;4990690;28;20058;-71
2023/04/30 00:46:00;;;;;;;1.00;0.30;;;18.80;61.20;;;;;;4989961;28;20050;-71
2023/04/30 00:48:27;;;;;;;1.50;0.40;;;18.70;61.20;;;;;;5005074;28;20053;-71
2023/04/30 00:50:54;;;;;;;1.48;0.40;;;18.70;61.20;;;;;;5001742;28;20085;-71
2023/04/30 00:53:21;;;;;;;1.08;0.40;;;18.70;61.20;;;;;;5009278;28;20502;-71
2023/04/30 00:55:48;;;;;;;1.00;0.25;;;18.80;61.30;;;;;;5010720;28;20054;-72
2023/04/30 00:58:17;;;;;;;1.05;0.20;;;18.70;61.20;;;;;;5010575;28;20046;-71
2023/04/30 01:00:45;;;;;;;1.50;0.45;;;18.70;61.20;;;;;;5010804;28;20054;-72
2023/04/30 01:03:13;;;;;;;1.20;0.30;;;18.70;61.20;;;;;;5010325;28;20050;-71
2023/04/30 01:05:40;;;;;;;1.10;0.40;;;18.70;61.20;;;;;;5010550;28;20042;-71
2023/04/30 01:08:08;;;;;;;1.13;0.30;;;18.70;61.20;;;;;;5010923;28;20612;-70
2023/04/30 01:10:42;;;;;;;1.15;0.30;;;18.70;61.20;;;;;;5010356;28;20128;-71
2023/04/30 01:13:15;;;;;;;1.20;0.30;;;18.70;61.20;;;;;;5010159;28;20085;-71
2023/04/30 01:15:49;;;;;;;1.95;0.45;;;18.70;61.20;;;;;;5010130;28;20082;-72
2023/04/30 01:18:22;;;;;;;0.80;0.20;;;18.70;61.20;;;;;;5009673;28;20051;-71
2023/04/30 01:21:02;;;;;;;1.65;0.40;;;18.60;61.10;;;;;;5008953;28;20994;-71
2023/04/30 01:23:42;;;;;;;0.98;0.28;;;18.70;61.10;;;;;;5009180;28;20065;-72
2023/04/30 01:26:15;;;;;;;1.10;0.32;;;18.60;61.10;;;;;;5008406;28;20372;-71
2023/04/30 01:28:45;;;;;;;1.08;0.22;;;18.70;61.10;;;;;;5010089;28;20180;-72
2023/04/30 01:31:15;;;;;;;0.90;0.30;;;18.70;61.10;;;;;;5010337;28;20050;-71
2023/04/30 01:33:42;;;;;;;1.58;0.30;;;18.70;61.10;;;;;;5008832;28;20092;-72
2023/04/30 01:36:42;;;;;;;1.35;0.50;;;18.70;61.10;;;;;;5009056;28;20533;-71
2023/04/30 01:39:21;;;;;;;1.15;0.40;;;18.70;61.00;;;;;;4990252;28;20117;-71
2023/04/30 01:41:55;;;;;;;0.88;0.30;;;18.70;61.00;;;;;;5000343;28;20050;-71
2023/04/30 01:44:41;;;;;;;0.77;0.20;;;18.80;61.00;;;;;;5010005;28;20045;-71
2023/04/30 01:47:18;;;;;;;0.85;0.30;;;18.80;60.90;;;;;;5007724;28;20115;-72
2023/04/30 01:49:57;;;;;;;0.75;0.10;;;18.80;60.80;;;;;;5008264;28;20495;-72
2023/04/30 01:52:32;;;;;;;1.02;0.45;;;18.90;60.70;;;;;;5008306;28;20064;-71
2023/04/30 01:55:05;;;;;;;1.05;0.20;;;18.90;60.60;;;;;;5009315;28;20165;-71
2023/04/30 01:57:37;;;;;;;0.95;0.25;;;19.00;60.60;;;;;;5008036;28;20081;-71
2023/04/30 02:00:07;;;;;;;1.10;0.20;;;19.00;60.50;;;;;;5008497;28;20544;-72
2023/04/30 02:02:34;;;;;;;0.95;0.32;;;19.10;60.40;;;;;;5009416;28;20075;-72
2023/04/30 02:05:01;;;;;;;1.20;0.30;;;19.20;60.40;;;;;;5009606;28;20140;-72
2023/04/30 02:07:37;;;;;;;0.93;0.20;;;19.30;60.30;;;;;;5009106;28;20053;-72
2023/04/30 02:10:05;;;;;;;0.90;0.28;;;19.40;60.20;;;;;;5009444;28;20100;-72
2023/04/30 02:12:32;;;;;;;0.85;0.20;;;19.40;60.00;;;;;;5007862;28;20581;-72
2023/04/30 02:14:59;;;;;;;0.90;0.25;;;19.50;60.00;;;;;;5009556;28;20107;-72
2023/04/30 02:17:28;;;;;;;1.67;0.20;;;19.50;59.90;;;;;;5008920;28;20112;-71
2023/04/30 02:19:54;;;;;;;0.85;0.25;;;19.60;59.90;;;;;;5009303;28;20088;-73
2023/04/30 02:22:21;;;;;;;1.13;0.22;;;19.60;59.80;;;;;;5008882;28;20053;-72
2023/04/30 02:24:48;;;;;;;1.30;0.52;;;19.60;59.70;;;;;;5008081;28;20054;-72
2023/04/30 02:27:15;;;;;;;1.30;0.20;;;19.60;59.80;;;;;;5009256;28;20053;-71
2023/04/30 02:29:42;;;;;;;0.90;0.20;;;19.60;59.80;;;;;;5008015;28;20064;-72
2023/04/30 02:32:09;;;;;;;1.20;0.22;;;19.60;59.80;;;;;;5009783;28;20058;-72
2023/04/30 02:34:37;;;;;;;1.17;0.30;;;19.60;59.80;;;;;;5009145;28;20046;-71
2023/04/30 02:37:04;;;;;;;0.63;0.10;;;19.60;59.90;;;;;;5008687;28;20053;-72
2023/04/30 02:39:31;;;;;;;1.05;0.45;;;19.60;60.00;;;;;;5008978;28;20511;-72
2023/04/30 02:41:58;;;;;;;1.45;0.20;;;19.50;59.90;;;;;;5008868;28;20053;-71
2023/04/30 02:44:27;;;;;;;0.85;0.30;;;19.50;60.00;;;;;;5009169;28;20054;-71
2023/04/30 02:46:53;;;;;;;0.73;0.22;;;19.50;60.00;;;;;;5008233;28;20077;-72
2023/04/30 02:49:20;;;;;;;0.90;0.20;;;19.50;60.00;;;;;;5013019;28;20042;-72
2023/04/30 02:51:49;;;;;;;0.57;0.20;;;19.50;60.00;;;;;;5012739;28;20446;-71
2023/04/30 02:54:16;;;;;;;0.77;0.20;;;19.40;60.00;;;;;;5012614;28;20080;-71
2023/04/30 02:56:43;;;;;;;0.93;0.20;;;19.40;60.00;;;;;;5011513;28;20084;-72
2023/04/30 02:59:10;;;;;;;1.77;0.20;;;19.40;60.00;;;;;;5011443;28;20145;-72
2023/04/30 03:01:37;;;;;;;1.42;0.10;;;19.30;60.00;;;;;;5011579;28;20089;-72
2023/04/30 03:04:04;;;;;;;1.10;0.20;;;19.40;60.00;;;;;;5009659;28;20053;-72
2023/04/30 03:06:32;;;;;;;1.20;0.30;;;19.30;60.00;;;;;;5012821;28;20406;-71
2023/04/30 03:09:00;;;;;;;0.93;0.25;;;19.30;60.00;;;;;;5011454;28;20058;-71
2023/04/30 03:11:27;;;;;;;0.88;0.20;;;19.30;60.10;;;;;;5012823;28;20085;-71
2023/04/30 03:13:54;;;;;;;0.75;0.20;;;19.20;60.10;;;;;;5006560;28;20495;-71
2023/04/30 03:16:22;;;;;;;1.05;0.30;;;19.10;60.10;;;;;;5008867;28;20045;-71
2023/04/30 03:18:49;;;;;;;1.08;0.10;;;19.10;60.10;;;;;;5011801;28;20054;-72
2023/04/30 03:21:16;;;;;;;2.15;0.20;;;19.10;60.20;;;;;;5012008;28;20085;-72
2023/04/30 03:23:43;;;;;;;1.50;0.22;;;19.10;60.20;;;;;;5020977;28;20053;-73
2023/04/30 03:26:12;;;;;;;1.05;0.30;;;19.10;60.30;;;;;;5031883;28;20046;-72
2023/04/30 03:28:39;;;;;;;1.15;0.22;;;19.00;60.20;;;;;;5032313;28;20418;-72
2023/04/30 03:31:06;;;;;;;0.82;0.20;;;19.00;60.20;;;;;;5030539;28;20037;-72
2023/04/30 03:33:33;;;;;;;1.23;0.20;;;19.00;60.30;;;;;;5012991;28;20136;-72
2023/04/30 03:36:00;;;;;;;1.00;0.20;;;19.00;60.30;;;;;;5012017;28;20081;-71
2023/04/30 03:38:27;;;;;;;0.82;0.20;;;18.90;60.20;;;;;;5010547;28;20116;-72
2023/04/30 03:40:54;;;;;;;0.95;0.20;;;19.00;60.30;;;;;;5020597;28;20049;-72
2023/04/30 03:43:22;;;;;;;1.73;0.20;;;18.90;60.90;;;;;;5031066;28;20049;-72
2023/04/30 03:45:49;;;;;;;1.00;0.25;;;18.90;60.30;;;;;;5030272;28;20544;-72
2023/04/30 03:48:16;;;;;;;1.25;0.30;;;18.90;60.30;;;;;;5017241;28;20148;-72
2023/04/30 03:50:43;;;;;;;0.80;0.13;;;18.90;60.30;;;;;;5011591;28;20057;-72
2023/04/30 03:53:10;;;;;;;1.33;0.25;;;18.90;60.40;;;;;;5011862;28;20470;-72
2023/04/30 03:55:37;;;;;;;0.95;0.40;;;18.90;60.40;;;;;;5011466;28;20050;-72
2023/04/30 03:58:04;;;;;;;0.80;0.20;;;18.80;60.90;;;;;;5011746;28;20057;-72
2023/04/30 04:00:32;;;;;;;1.02;0.35;;;18.80;60.40;;;;;;5009331;28;20494;-72
2023/04/30 04:02:59;;;;;;;0.80;0.20;;;18.80;60.40;;;;;;5011215;28;20049;-72
2023/04/30 04:05:26;;;;;;;0.60;0.20;;;18.80;60.30;;;;;;5011190;28;20629;-72
2023/04/30 04:07:53;;;;;;;0.95;0.10;;;18.70;60.30;;;;;;5010109;28;20116;-72
2023/04/30 04:10:20;;;;;;;0.80;0.10;;;18.80;60.40;;;;;;5011642;28;20050;-72
2023/04/30 04:12:47;;;;;;;1.33;0.20;;;18.70;60.40;;;;;;5009431;28;20057;-72
2023/04/30 04:15:14;;;;;;;0.90;0.28;;;18.70;60.30;;;;;;5023319;28;20115;-72
2023/04/30 04:17:42;;;;;;;1.77;0.40;;;18.70;60.30;;;;;;5021694;28;20650;-72
2023/04/30 04:20:10;;;;;;;0.90;0.20;;;18.70;60.40;;;;;;5011151;28;20150;-72
2023/04/30 04:22:37;;;;;;;1.05;0.20;;;18.70;60.30;;;;;;5011283;28;20053;-71
2023/04/30 04:25:04;;;;;;;0.70;0.10;;;18.70;60.40;;;;;;5011129;28;20056;-72
2023/04/30 04:27:31;;;;;;;1.48;0.50;;;18.70;60.30;;;;;;5010550;28;20125;-72
2023/04/30 04:29:59;;;;;;;0.80;0.32;;;18.70;60.30;;;;;;5011088;28;20061;-72
2023/04/30 04:32:26;;;;;;;1.05;0.20;;;18.60;60.30;;;;;;5010035;28;20045;-72
2023/04/30 04:34:55;;;;;;;0.70;0.22;;;18.70;60.30;;;;;;5010980;28;20072;-72
2023/04/30 04:37:22;;;;;;;1.23;0.22;;;18.70;60.90;;;;;;5009523;28;20054;-72
2023/04/30 04:39:50;;;;;;;0.90;0.20;;;18.70;60.80;;;;;;5010537;28;20061;-71
2023/04/30 04:42:17;;;;;;;0.63;0.10;;;18.80;60.20;;;;;;5010492;28;20050;-72
2023/04/30 04:44:44;;;;;;;1.20;0.30;;;18.80;60.20;;;;;;5009607;28;20053;-72
2023/04/30 04:47:11;;;;;;;1.27;0.40;;;18.90;60.10;;;;;;5008734;28;20403;-72
2023/04/30 04:49:38;;;;;;;1.02;0.20;;;18.90;60.00;;;;;;5010884;28;20681;-71
2023/04/30 04:52:07;;;;;;;1.02;0.30;;;19.00;60.00;;;;;;5009034;28;20518;-72
2023/04/30 04:54:34;;;;;;;0.60;0.10;;;19.10;60.00;;;;;;5010317;28;20062;-72
2023/04/30 04:57:01;;;;;;;0.80;0.30;;;19.10;59.80;;;;;;5010282;28;20077;-72
2023/04/30 04:59:29;;;;;;;0.70;0.20;;;19.20;59.70;;;;;;5010264;28;20419;-72
2023/04/30 05:01:56;;;;;;;1.08;0.25;;;19.20;59.60;;;;;;5009954;28;20056;-72
2023/04/30 05:04:23;;;;;;;1.55;0.32;;;19.30;59.40;;;;;;5010038;28;20110;-72
2023/04/30 05:06:50;;;;;;;0.95;0.30;;;19.40;59.30;;;;;;5010796;28;20054;-72
2023/04/30 05:09:18;;;;;;;0.88;0.20;;;19.50;59.20;;;;;;5008609;28;20046;-72
2023/04/30 05:11:47;;;;;;;1.15;0.25;;;19.50;59.00;;;;;;5009715;28;20045;-72
2023/04/30 05:14:14;;;;;;;0.85;0.20;;;19.60;59.00;;;;;;5009919;28;20094;-71
2023/04/30 05:16:41;;;;;;;0.90;0.30;;;19.70;58.90;;;;;;5008379;28;20054;-72
2023/04/30 05:19:08;;;;;;;1.02;0.30;;;19.70;58.90;;;;;;4989050;28;20738;-72
2023/04/30 05:21:35;;;;;;;0.93;0.30;;;19.70;58.90;;;;;;4998330;28;20089;-72
2023/04/30 05:24:03;;;;;;;0.70;0.20;;;19.70;58.90;;;;;;5010211;28;20487;-72
2023/04/30 05:26:31;;;;;;;0.90;0.20;;;19.70;58.80;;;;;;5010152;28;20096;-71
2023/04/30 05:28:58;;;;;;;0.90;0.20;;;19.70;58.90;;;;;;5010136;28;20112;-72
2023/04/30 05:31:25;;;;;;;0.85;0.32;;;19.70;58.90;;;;;;5010075;28;20058;-69
2023/04/30 05:33:52;;;;;;;0.90;0.30;;;19.70;58.90;;;;;;5009715;28;20061;-71
2023/04/30 05:36:19;;;;;;;0.90;0.40;;;19.70;58.90;;;;;;5009696;28;20057;-72
2023/04/30 05:38:46;;;;;;;1.13;0.22;;;19.70;58.90;;;;;;5009190;28;20462;-72
2023/04/30 05:41:13;;;;;;;1.00;0.25;;;19.60;58.90;;;;;;5029315;28;20056;-73
2023/04/30 05:43:41;;;;;;;0.73;0.20;;;19.60;59.00;;;;;;5029610;28;20131;-72
2023/04/30 05:46:08;;;;;;;0.93;0.20;;;19.60;59.20;;;;;;5028134;28;20490;-73
2023/04/30 05:48:35;;;;;;;0.70;0.20;;;19.60;59.10;;;;;;5011849;28;20061;-72
2023/04/30 05:51:02;;;;;;;1.23;0.20;;;19.50;59.10;;;;;;5009347;28;20061;-72
2023/04/30 05:53:29;;;;;;;0.70;0.20;;;19.50;59.10;;;;;;5009640;28;20050;-71
2023/04/30 05:55:56;;;;;;;0.90;0.20;;;19.50;59.20;;;;;;5008845;28;20057;-72
2023/04/30 05:58:23;;;;;;;1.05;0.20;;;19.50;59.20;;;;;;5009539;28;20061;-72
2023/04/30 06:00:51;;;;;;;0.93;0.13;;;19.50;59.30;;;;;;5008005;28;20050;-72
2023/04/30 06:03:19;;;;;;;0.60;0.22;;;19.40;59.30;;;;;;5009545;28;20522;-72
2023/04/30 06:05:46;;;;;;;0.63;0.10;;;19.40;59.30;;;;;;5010513;28;20049;-71
2023/04/30 06:08:13;;;;;;;0.88;0.20;;;19.40;59.40;;;;;;5008586;28;20046;-72
2023/04/30 06:10:40;;;;;;;1.15;0.47;;;19.40;60.00;;;;;;5009602;28;20057;-72
2023/04/30 06:13:07;;;;;;;0.73;0.20;;;19.40;59.40;;;;;;5009599;28;20054;-72
2023/04/30 06:15:34;;;;;;;0.75;0.20;;;19.30;59.40;;;;;;5009290;28;20061;-72
2023/04/30 06:18:03;;;;;;;1.08;0.20;;;19.30;59.50;;;;;;5008409;28;20129;-72
2023/04/30 06:20:30;;;;;;;0.77;0.40;;;19.30;59.50;;;;;;5007920;28;20049;-71
2023/04/30 06:22:57;;;;;;;0.70;0.20;;;19.30;59.50;;;;;;5009085;28;20376;-72
2023/04/30 06:25:25;;;;;;;1.10;0.30;;;19.30;59.60;;;;;;5009057;28;20661;-72
2023/04/30 06:27:52;;;;;;;0.80;0.20;;;19.30;59.60;;;;;;5009412;28;20041;-72
2023/04/30 06:30:19;;;;;;;0.60;0.30;;;19.30;59.60;;;;;;5008298;28;20053;-72
2023/04/30 06:32:46;;;;;;;0.70;0.10;;;19.30;59.60;;;;;;5009823;28;20045;-72
2023/04/30 06:35:15;;;;;;;0.95;0.10;;;19.30;59.70;;;;;;5009612;28;20060;-72
2023/04/30 06:37:42;;;;;;;1.25;0.20;;;19.30;59.80;;;;;;5009499;28;20076;-72
2023/04/30 06:40:09;;;;;;;1.20;0.22;;;19.20;59.70;;;;;;5007958;28;20054;-71
2023/04/30 06:42:36;;;;;;;1.08;0.20;;;19.20;59.70;;;;;;5008865;28;20060;-71
2023/04/30 06:45:05;;;;;;;0.75;0.15;;;19.20;59.70;;;;;;5009140;28;20206;-72
2023/04/30 06:47:33;;;;;;;1.75;0.28;;;19.20;59.80;;;;;;5008605;28;20129;-72
2023/04/30 06:50:00;;;;;;;1.52;0.20;;;19.30;59.80;;;;;;5009100;28;20143;-72
2023/04/30 06:52:28;;;;;;;0.93;0.40;;;19.30;59.80;;;;;;5007669;28;20053;-71
2023/04/30 06:54:55;;;;;;;1.02;0.20;;;19.30;59.70;;;;;;5008904;28;20050;-72
2023/04/30 06:57:23;;;;;;;0.88;0.32;;;19.30;59.70;;;;;;5007336;28;20054;-72
2023/04/30 06:59:50;;;;;;;1.10;0.20;;;19.30;59.60;;;;;;5007589;28;20496;-71
2023/04/30 07:02:17;;;;;;;1.00;0.30;;;19.40;59.60;;;;;;5007515;28;20050;-72
2023/04/30 07:04:44;;;;;;;0.57;0.10;;;19.40;59.50;;;;;;5009111;28;20434;-72
2023/04/30 07:07:11;;;;;;;1.02;0.20;;;19.40;59.50;;;;;;5007549;28;20054;-72
2023/04/30 07:09:39;;;;;;;0.63;0.25;;;19.40;59.50;;;;;;5008384;28;20136;-72
2023/04/30 07:12:06;;;;;;;1.17;0.20;;;19.40;59.40;;;;;;5008679;28;20417;-72
2023/04/30 07:14:33;;;;;;;0.60;0.20;;;19.40;59.50;;;;;;5008182;28;20061;-72
2023/04/30 07:17:00;;;;;;;0.63;0.10;;;19.40;59.50;;;;;;5007758;28;20054;-72
2023/04/30 07:19:27;;;;;;;0.98;0.20;;;19.40;59.50;;;;;;5007337;28;20054;-72
2023/04/30 07:21:54;;;;;;;0.85;0.30;;;19.40;60.20;;;;;;5019066;28;20046;-72
2023/04/30 07:24:21;;;;;;;1.33;0.35;;;19.40;59.50;;;;;;5027222;28;20411;-72
2023/04/30 07:26:49;;;;;;;0.85;0.20;;;19.40;59.50;;;;;;5022991;28;20052;-72
2023/04/30 07:29:17;;;;;;;1.75;0.40;;;19.40;59.50;;;;;;4996162;28;20054;-72
2023/04/30 07:31:44;;;;;;;1.10;0.30;;;19.40;59.50;;;;;;4988974;28;20134;-71
2023/04/30 07:34:12;;;;;;;1.83;0.10;;;19.40;59.50;;;;;;4989195;28;20090;-71
2023/04/30 07:36:39;;;;;;;0.98;0.10;;;19.40;59.50;;;;;;4992440;28;20448;-72
2023/04/30 07:39:06;;;;;;;0.82;0.10;;;19.50;59.60;;;;;;5019276;28;20784;-71
2023/04/30 07:41:33;;;;;;;0.80;0.20;;;19.50;59.50;;;;;;5031935;28;20049;-72
2023/04/30 07:44:02;;;;;;;0.93;0.30;;;19.50;59.50;;;;;;5032146;28;20041;-71
2023/04/30 07:46:29;;;;;;;0.77;0.13;;;19.50;59.50;;;;;;5032232;28;20514;-72
2023/04/30 07:48:55;;;;;;;1.08;0.20;;;19.50;59.50;;;;;;5013126;28;20495;-70
2023/04/30 07:51:23;;;;;;;1.25;0.30;;;19.50;59.50;;;;;;5010330;28;20057;-71
2023/04/30 07:53:52;;;;;;;0.80;0.10;;;19.50;59.50;;;;;;5011447;28;20539;-70
2023/04/30 07:56:19;;;;;;;1.63;0.30;;;19.50;59.40;;;;;;5012593;28;20403;-71
2023/04/30 07:58:47;;;;;;;0.70;0.10;;;19.60;59.50;;;;;;5010408;28;20050;-71
2023/04/30 08:01:17;;;;;;;1.83;0.38;;;19.60;59.50;;;;;;5011784;28;20084;-71
2023/04/30 08:03:44;;;;;;;0.50;0.10;;;19.60;59.50;;;;;;5011783;28;20065;-71
2023/04/30 08:06:11;;;;;;;1.00;0.20;;;19.60;59.50;;;;;;5011520;28;20046;-71
2023/04/30 08:08:38;;;;;;;0.90;0.30;;;19.60;59.40;;;;;;5010297;28;20046;-72
2023/04/30 08:11:05;;;;;;;1.20;0.10;;;19.60;59.40;;;;;;5010332;28;20054;-72
2023/04/30 08:13:32;;;;;;;0.60;0.13;;;19.60;59.50;;;;;;5011862;28;20054;-72
2023/04/30 08:15:59;;;;;;;0.55;0.20;;;19.60;59.40;;;;;;5010975;28;20411;-71
2023/04/30 08:18:27;;;;;;;0.90;0.13;;;19.60;59.30;;;;;;5010759;28;20068;-71
2023/04/30 08:20:54;;;;;;;0.80;0.20;;;19.70;59.40;;;;;;5009560;28;20430;-72
2023/04/30 08:23:21;;;;;;;0.98;0.13;;;19.70;59.40;;;;;;5009839;28;20100;-71
2023/04/30 08:25:48;;;;;;;1.65;0.10;;;19.70;59.30;;;;;;5009937;28;20054;-72
2023/04/30 08:28:15;;;;;;;0.63;0.25;;;19.70;59.20;;;;;;4995412;28;20492;-71
2023/04/30 08:30:42;;;;;;;1.13;0.10;;;19.70;59.90;;;;;;5007950;28;20060;-71
2023/04/30 08:33:09;;;;;;;1.38;0.30;;;19.70;59.20;;;;;;5011082;28;20057;-71
2023/04/30 08:35:38;;;;;;;1.60;0.20;;;19.70;59.20;;;;;;5009710;28;20049;-71
2023/04/30 08:38:05;;;;;;;1.42;0.32;;;19.70;59.30;;;;;;5009346;28;20458;-71
2023/04/30 08:40:35;;;;;;;1.08;0.22;;;19.70;59.20;;;;;;5010813;28;20058;-71
2023/04/30 08:43:06;;;;;;;0.60;0.10;;;19.70;59.20;;;;;;5009338;28;20593;-72
2023/04/30 08:45:33;;;;;;;0.52;0.13;;;19.70;59.30;;;;;;5010127;28;20050;-72
2023/04/30 08:48:01;;;;;;;1.35;0.22;;;19.70;59.20;;;;;;5010642;28;20081;-72
2023/04/30 08:50:28;;;;;;;0.73;0.22;;;19.70;59.30;;;;;;5010524;28;20456;-72
2023/04/30 08:52:59;;;;;;;0.52;0.25;;;19.70;59.20;;;;;;5010728;28;20050;-71
2023/04/30 08:55:27;;;;;;;0.93;0.30;;;19.70;59.20;;;;;;5010415;28;20070;-71
2023/04/30 08:57:54;;;;;;;1.00;0.20;;;19.80;59.30;;;;;;5010817;28;20049;-72
2023/04/30 09:00:21;;;;;;;0.98;0.20;;;19.80;59.20;;;;;;5009247;28;20057;-72
2023/04/30 09:02:49;;;;;;;1.00;0.10;;;19.80;59.20;;;;;;5011140;28;20112;-72
2023/04/30 09:05:16;;;;;;;0.85;0.20;;;19.80;59.20;;;;;;5010581;28;20529;-71
2023/04/30 09:07:44;;;;;;;0.60;0.20;;;19.80;59.20;;;;;;5009657;28;20137;-71
2023/04/30 09:10:17;;;;;;;0.70;0.30;;;19.80;59.20;;;;;;5009766;28;20116;-71
2023/04/30 09:12:44;;;;;;;0.73;0.20;;;19.80;59.30;;;;;;5010275;28;20057;-72
2023/04/30 09:15:12;;;;;;;1.15;0.20;;;19.80;59.20;;;;;;5010279;28;20601;-71
2023/04/30 09:17:39;;;;;;;0.98;0.30;;;19.80;59.30;;;;;;5008249;28;20049;-71
2023/04/30 09:20:10;;;;;;;0.85;0.20;;;19.80;59.30;;;;;;5013698;28;20060;-71
2023/04/30 09:22:38;;;;;;;0.77;0.20;;;19.80;59.30;;;;;;5030211;28;20082;-72
2023/04/30 09:25:06;;;;;;;1.33;0.30;;;19.80;59.30;;;;;;5028740;28;20041;-69
2023/04/30 09:27:35;;;;;;;0.85;0.10;;;19.90;59.40;;;;;;5009246;28;20093;-71
2023/04/30 09:30:03;;;;;;;0.80;0.10;;;19.90;59.30;;;;;;5010040;28;20050;-71
2023/04/30 09:32:30;;;;;;;0.95;0.10;;;19.90;59.30;;;;;;5010222;28;20054;-72
2023/04/30 09:34:57;;;;;;;0.77;0.30;;;19.90;59.40;;;;;;5008732;28;20060;-72
2023/04/30 09:37:36;;;;;;;0.73;0.22;;;19.90;59.40;;;;;;5014409;28;20056;-71
2023/04/30 09:40:03;;;;;;;1.05;0.30;;;19.90;59.40;;;;;;5029134;28;20061;-71
2023/04/30 09:42:30;;;;;;;1.48;0.20;;;19.90;59.30;;;;;;5029053;28;20506;-71
2023/04/30 09:44:59;;;;;;;1.08;0.25;;;19.90;59.30;;;;;;5015605;28;20062;-72
2023/04/30 09:47:30;;;;;;;0.93;0.17;;;19.90;59.40;;;;;;5008483;28;20050;-71
2023/04/30 09:50:00;;;;;;;1.13;0.20;;;19.90;60.00;;;;;;5008337;28;20119;-72
2023/04/30 09:52:27;;;;;;;;;;;20.00;59.40;;;;;;5009892;28;20577;-72
2023/04/30 09:54:54;;;;;;;0.60;0.10;;;20.00;59.50;;;;;;5010368;28;20036;-72
2023/04/30 09:57:24;;;;;;;1.17;0.13;;;20.00;59.40;;;;;;5008333;28;20057;-71
2023/04/30 09:59:52;;;;;;;1.13;0.30;;;20.00;59.40;;;;;;5008214;28;20053;-72
2023/04/30 10:02:22;;;;;;;1.40;0.20;;;20.00;59.50;;;;;;5009329;28;20136;-71
2023/04/30 10:04:53;;;;;;;;;;;20.00;59.40;;;;;;5009897;28;20128;-72
2023/04/30 10:07:22;;;;;;;1.17;0.30;;;20.00;59.60;;;;;;5009603;28;19999;-73
2023/04/30 10:09:53;;;;;;;0.63;0.22;;;20.00;59.40;;;;;;5008364;28;20041;-72
2023/04/30 10:12:26;;;;;;;0.63;0.20;;;20.00;59.40;;;;;;5009640;28;20065;-71
2023/04/30 10:14:57;;;;;;;0.98;0.30;;;20.00;59.50;;;;;;5007405;28;20049;-72
2023/04/30 10:17:30;;;;;;;1.88;0.25;;;20.00;59.50;;;;;;5007451;28;20132;-73
2023/04/30 10:20:06;;;;;;;0.60;0.10;;;20.00;59.50;;;;;;5008147;28;20486;-73
2023/04/30 10:22:34;;;;;;;1.27;0.20;;;20.00;59.50;;;;;;5008856;28;20053;-72
2023/04/30 10:25:02;;;;;;;1.15;0.17;;;20.10;59.60;;;;;;5009159;28;20157;-72
2023/04/30 10:27:29;;;;;;;0.75;0.10;;;20.10;59.60;;;;;;5009589;28;20050;-71
2023/04/30 10:29:57;;;;;;;0.80;0.20;;;20.10;59.50;;;;;;5008901;28;20105;-71
2023/04/30 10:32:33;;;;;;;1.23;0.50;;;20.10;59.60;;;;;;5009123;28;20057;-70
2023/04/30 10:35:10;;;;;;;0.90;0.30;;;20.10;59.50;;;;;;5009244;28;20053;-71
2023/04/30 10:37:46;;;;;;;0.80;0.20;;;20.10;59.50;;;;;;5007688;28;20139;-72
2023/04/30 10:40:13;;;;;;;0.90;0.25;;;20.20;59.60;;;;;;5008811;28;20049;-71
2023/04/30 10:42:45;;;;;;;0.60;0.25;;;20.20;59.60;;;;;;5007176;28;20053;-71
2023/04/30 10:45:13;;;;;;;0.70;0.20;;;20.20;59.60;;;;;;5012810;28;20056;-71
2023/04/30 10:47:45;;;;;;;1.00;0.10;;;20.20;59.60;;;;;;5019762;28;20057;-71
2023/04/30 10:50:12;;;;;;;0.68;0.28;;;20.20;59.60;;;;;;5008616;28;20054;-72
2023/04/30 10:52:39;;;;;;;0.95;0.30;;;20.20;59.50;;;;;;5008627;28;20088;-73
2023/04/30 10:55:08;;;;;;;0.93;0.20;;;20.20;59.50;;;;;;5008606;28;20418;-74
2023/04/30 10:57:41;;;;;;;0.60;0.20;;;20.30;59.60;;;;;;5008970;28;20089;-73
2023/04/30 11:00:26;;;;;;;1.85;0.30;;;20.30;59.60;;;;;;5008962;28;20128;-73
2023/04/30 11:02:57;;;;;;;0.60;0.20;;;20.30;59.60;;;;;;5009334;28;20543;-73
2023/04/30 11:05:35;;;;;;;1.23;0.30;;;20.30;59.60;;;;;;5008731;28;20050;-73
2023/04/30 11:08:02;;;;;;;1.38;0.20;;;20.40;60.20;;;;;;5008887;28;20077;-72
2023/04/30 11:10:33;;;;;;;1.20;0.30;;;20.40;59.60;;;;;;5012391;28;20046;-72
2023/04/30 11:13:04;;;;;;;0.80;0.10;;;20.40;59.60;;;;;;5012249;28;20056;-73
2023/04/30 11:15:39;;;;;;;0.70;0.10;;;20.40;59.60;;;;;;5010788;28;20085;-73
2023/04/30 11:18:08;;;;;;;0.90;0.32;;;20.40;59.60;;;;;;5010411;28;20188;-73
2023/04/30 11:20:40;;;;;;;1.80;0.38;;;20.50;59.60;;;;;;5012928;28;20053;-73
2023/04/30 11:23:11;;;;;;;0.75;0.20;;;20.40;59.60;;;;;;5010871;28;20095;-73
2023/04/30 11:25:42;;;;;;;0.57;0.10;;;20.50;59.60;;;;;;5012478;28;20046;-72
2023/04/30 11:28:15;;;;;;;0.77;0.20;;;20.50;59.60;;;;;;5011048;28;20080;-73
2023/04/30 11:30:50;;;;;;;0.85;0.10;;;20.50;59.60;;;;;;5011320;28;20049;-72
2023/04/30 11:33:18;;;;;;;0.70;0.10;;;20.50;59.60;;;;;;5012006;28;20088;-73
2023/04/30 11:35:45;;;;;;;1.10;0.38;;;20.50;59.60;;;;;;5012721;28;20403;-73
2023/04/30 11:38:13;;;;;;;1.13;0.15;;;20.50;59.60;;;;;;5012206;28;20046;-73
2023/04/30 11:40:41;;;;;;;1.60;0.20;;;20.60;59.70;;;;;;5011848;28;20049;-73
2023/04/30 11:43:08;;;;;;;0.93;0.25;;;20.60;59.60;;;;;;5011721;28;20053;-73
2023/04/30 11:45:35;;;;;;;0.80;0.25;;;20.60;59.60;;;;;;5011787;28;20065;-72
2023/04/30 11:48:02;;;;;;;0.63;0.10;;;20.60;59.60;;;;;;5011375;28;20046;-73
2023/04/30 11:50:34;;;;;;;0.50;0.10;;;20.60;59.60;;;;;;5010382;28;20050;-72
2023/04/30 11:53:02;;;;;;;0.90;0.30;;;20.60;59.60;;;;;;5012638;28;20085;-73
2023/04/30 11:55:29;;;;;;;1.00;0.20;;;20.60;59.60;;;;;;5011426;28;20446;-73
2023/04/30 11:57:58;;;;;;;0.88;0.22;;;20.70;59.60;;;;;;5010524;28;20049;-71
2023/04/30 12:00:27;;;;;;;1.17;0.30;;;20.70;59.60;;;;;;5011558;28;20217;-72
2023/04/30 12:02:55;;;;;;;0.82;0.20;;;20.70;59.60;;;;;;5010149;28;20112;-72
2023/04/30 12:05:24;;;;;;;1.00;0.30;;;20.70;59.60;;;;;;5011856;28;20045;-72
2023/04/30 12:07:56;;;;;;;1.08;0.10;;;20.70;59.60;;;;;;5010104;28;20506;-73
2023/04/30 12:10:23;;;;;;;1.08;0.20;;;20.80;59.60;;;;;;5012128;28;20050;-72
2023/04/30 12:12:51;;;;;;;0.68;0.43;;;20.80;59.60;;;;;;5011144;28;20499;-73
2023/04/30 12:15:22;;;;;;;0.80;0.17;;;20.80;60.20;;;;;;5011331;28;20057;-72
2023/04/30 12:17:49;;;;;;;1.02;0.13;;;20.80;59.60;;;;;;5010621;28;20058;-73
2023/04/30 12:20:17;;;;;;;1.30;0.20;;;20.80;59.60;;;;;;5010454;28;20136;-72
2023/04/30 12:22:45;;;;;;;0.50;0.10;;;20.80;59.60;;;;;;5011237;28;20053;-72
2023/04/30 12:25:16;;;;;;;0.75;0.13;;;20.80;59.70;;;;;;5011068;28;20057;-73
2023/04/30 12:27:46;;;;;;;1.05;0.20;;;20.80;59.70;;;;;;5020164;28;20582;-72
2023/04/30 12:30:14;;;;;;;0.90;0.20;;;20.90;59.80;;;;;;5030755;28;20132;-73
2023/04/30 12:32:42;;;;;;;1.35;0.20;;;20.90;59.90;;;;;;5030842;28;20441;-72
2023/04/30 12:35:13;;;;;;;1.75;0.20;;;20.90;59.90;;;;;;5030737;28;20041;-72
2023/04/30 12:37:43;;;;;;;0.70;0.30;;;20.90;59.80;;;;;;5030768;28;20061;-72
2023/04/30 12:40:11;;;;;;;0.95;0.20;;;20.90;59.80;;;;;;5029604;28;20118;-72
2023/04/30 12:42:39;;;;;;;0.40;0.10;;;21.00;59.90;;;;;;5029085;28;20139;-73
2023/04/30 12:45:08;;;;;;;0.70;0.20;;;20.90;59.90;;;;;;5029899;28;20045;-72
2023/04/30 12:47:40;;;;;;;0.73;0.20;;;20.90;59.90;;;;;;5024253;28;20042;-72
2023/04/30 12:50:09;;;;;;;0.52;0.10;;;21.00;59.90;;;;;;5010613;28;20581;-72
2023/04/30 12:52:37;;;;;;;1.00;0.20;;;21.00;59.90;;;;;;5010786;28;20050;-73
2023/04/30 12:55:18;;;;;;;0.50;0.10;;;21.00;59.90;;;;;;5010960;28;20054;-72